sensor_id;sensor_type;location;lat;lon;timestamp;pressure;altitude;pressure_sealevel;temperature;humidity
10652;BME280;5374;42.742;23.266;2023-12-20T00:00:22;95872.03;;;0.36;100.00
10652;BME280;5374;42.742;23.266;2023-12-20T00:03:10;95878.22;;;0.34;100.00
10652;BME280;5374;42.742;23.266;2023-12-20T00:05:57;95874.47;;;0.37;100.00
10652;BME280;5374;42.742;23.266;2023-12-20T00:08:44;95856.41;;;0.27;100.00
10652;BME280;5374;42.742;23.266;2023-12-20T00:11:31;95862.50;;;0.43;100.00
10652;BME280;5374;42.742;23.266;2023-12-20T00:14:18;95862.72;;;0.33;100.00
10652;BME280;5374;42.742;23.266;2023-12-20T00:17:07;95872.88;;;0.28;100.00
10652;BME280;5374;42.742;23.266;2023-12-20T00:19:54;95847.75;;;0.27;100.00
10652;BME280;5374;42.742;23.266;2023-12-20T00:22:41;95851.19;;;0.27;100.00
10652;BME280;5374;42.742;23.266;2023-12-20T00:25:28;95841.03;;;0.32;100.00
10652;BME280;5374;42.742;23.266;2023-12-20T00:28:18;95813.59;;;0.14;100.00
10652;BME280;5374;42.742;23.266;2023-12-20T00:31:05;95828.41;;;0.21;100.00
10652;BME280;5374;42.742;23.266;2023-12-20T00:33:54;95814.59;;;0.13;100.00
10652;BME280;5374;42.742;23.266;2023-12-20T00:36:45;95834.78;;;0.19;100.00
10652;BME280;5374;42.742;23.266;2023-12-20T00:39:32;95826.31;;;0.17;100.00
10652;BME280;5374;42.742;23.266;2023-12-20T00:42:19;95783.47;;;-0.12;100.00
10652;BME280;5374;42.742;23.266;2023-12-20T00:45:12;95809.19;;;0.14;100.00
10652;BME280;5374;42.742;23.266;2023-12-20T00:48:00;95802.53;;;0.12;100.00
10652;BME280;5374;42.742;23.266;2023-12-20T00:50:49;95822.88;;;0.16;100.00
10652;BME280;5374;42.742;23.266;2023-12-20T00:53:36;95796.38;;;0.05;100.00
10652;BME280;5374;42.742;23.266;2023-12-20T00:56:27;95816.84;;;0.16;100.00
10652;BME280;5374;42.742;23.266;2023-12-20T00:59:16;95812.31;;;0.10;100.00
10652;BME280;5374;42.742;23.266;2023-12-20T01:02:06;95807.41;;;0.15;100.00
10652;BME280;5374;42.742;23.266;2023-12-20T01:04:54;95793.94;;;0.03;100.00
10652;BME280;5374;42.742;23.266;2023-12-20T01:07:43;95779.69;;;-0.09;100.00
10652;BME280;5374;42.742;23.266;2023-12-20T01:10:30;95795.72;;;0.03;100.00
10652;BME280;5374;42.742;23.266;2023-12-20T01:13:18;95757.41;;;-0.43;100.00
10652;BME280;5374;42.742;23.266;2023-12-20T01:16:06;95717.72;;;-0.53;100.00
10652;BME280;5374;42.742;23.266;2023-12-20T01:18:53;95790.69;;;0.01;100.00
10652;BME280;5374;42.742;23.266;2023-12-20T01:21:43;95781.06;;;0.02;100.00
10652;BME280;5374;42.742;23.266;2023-12-20T01:24:32;95784.31;;;0.04;100.00
10652;BME280;5374;42.742;23.266;2023-12-20T01:27:19;95783.97;;;0.07;100.00
10652;BME280;5374;42.742;23.266;2023-12-20T01:30:08;95750.84;;;-0.16;100.00
10652;BME280;5374;42.742;23.266;2023-12-20T01:32:55;95771.06;;;0.05;100.00
10652;BME280;5374;42.742;23.266;2023-12-20T01:35:45;95757.31;;;-0.04;100.00
10652;BME280;5374;42.742;23.266;2023-12-20T01:38:32;95762.25;;;0.06;100.00
10652;BME280;5374;42.742;23.266;2023-12-20T01:41:22;95766.66;;;0.06;100.00
10652;BME280;5374;42.742;23.266;2023-12-20T01:44:10;95732.00;;;-0.03;100.00
10652;BME280;5374;42.742;23.266;2023-12-20T01:47:00;95757.84;;;0.07;100.00
10652;BME280;5374;42.742;23.266;2023-12-20T01:49:48;95743.09;;;-0.01;100.00
10652;BME280;5374;42.742;23.266;2023-12-20T01:52:37;95753.06;;;-0.05;100.00
10652;BME280;5374;42.742;23.266;2023-12-20T01:55:25;95711.56;;;0.00;100.00
10652;BME280;5374;42.742;23.266;2023-12-20T01:58:16;95727.81;;;0.11;100.00
10652;BME280;5374;42.742;23.266;2023-12-20T02:01:06;95745.28;;;0.25;100.00
10652;BME280;5374;42.742;23.266;2023-12-20T02:03:55;95736.28;;;0.27;100.00
10652;BME280;5374;42.742;23.266;2023-12-20T02:06:42;95732.50;;;0.30;100.00
10652;BME280;5374;42.742;23.266;2023-12-20T02:09:36;95718.47;;;0.31;100.00
10652;BME280;5374;42.742;23.266;2023-12-20T02:12:23;95725.41;;;0.39;100.00
10652;BME280;5374;42.742;23.266;2023-12-20T02:15:12;95720.47;;;0.44;100.00
10652;BME280;5374;42.742;23.266;2023-12-20T02:17:59;95720.06;;;0.47;100.00
10652;BME280;5374;42.742;23.266;2023-12-20T02:20:46;95719.53;;;0.51;100.00
10652;BME280;5374;42.742;23.266;2023-12-20T02:23:35;95709.72;;;0.53;100.00
10652;BME280;5374;42.742;23.266;2023-12-20T02:26:22;95687.31;;;0.44;100.00
10652;BME280;5374;42.742;23.266;2023-12-20T02:29:09;95692.69;;;0.57;100.00
10652;BME280;5374;42.742;23.266;2023-12-20T02:31:57;95679.91;;;0.48;100.00
10652;BME280;5374;42.742;23.266;2023-12-20T02:34:44;95692.34;;;0.60;100.00
10652;BME280;5374;42.742;23.266;2023-12-20T02:37:32;95693.53;;;0.43;100.00
10652;BME280;5374;42.742;23.266;2023-12-20T02:40:21;95681.00;;;0.53;100.00
10652;BME280;5374;42.742;23.266;2023-12-20T02:43:08;95677.03;;;0.57;100.00
10652;BME280;5374;42.742;23.266;2023-12-20T02:45:55;95678.19;;;0.55;100.00
10652;BME280;5374;42.742;23.266;2023-12-20T02:48:42;95671.34;;;0.54;100.00
10652;BME280;5374;42.742;23.266;2023-12-20T02:51:30;95654.22;;;0.51;100.00
10652;BME280;5374;42.742;23.266;2023-12-20T02:54:17;95613.56;;;0.13;100.00
10652;BME280;5374;42.742;23.266;2023-12-20T02:57:06;95672.63;;;0.58;100.00
10652;BME280;5374;42.742;23.266;2023-12-20T02:59:53;95685.94;;;0.63;100.00
10652;BME280;5374;42.742;23.266;2023-12-20T03:02:40;95669.28;;;0.49;100.00
10652;BME280;5374;42.742;23.266;2023-12-20T03:05:27;95683.25;;;0.56;100.00
10652;BME280;5374;42.742;23.266;2023-12-20T03:08:14;95677.03;;;0.57;100.00
10652;BME280;5374;42.742;23.266;2023-12-20T03:11:02;95671.81;;;0.57;100.00
10652;BME280;5374;42.742;23.266;2023-12-20T03:13:50;95669.81;;;0.59;100.00
10652;BME280;5374;42.742;23.266;2023-12-20T03:16:37;95674.22;;;0.59;100.00
10652;BME280;5374;42.742;23.266;2023-12-20T03:19:24;95667.22;;;0.59;100.00
10652;BME280;5374;42.742;23.266;2023-12-20T03:22:12;95657.13;;;0.56;100.00
10652;BME280;5374;42.742;23.266;2023-12-20T03:24:59;95665.59;;;0.58;100.00
10652;BME280;5374;42.742;23.266;2023-12-20T03:27:46;95632.81;;;0.41;100.00
10652;BME280;5374;42.742;23.266;2023-12-20T03:30:34;95659.56;;;0.58;100.00
10652;BME280;5374;42.742;23.266;2023-12-20T03:33:21;95665.78;;;0.57;100.00
10652;BME280;5374;42.742;23.266;2023-12-20T03:36:11;95644.78;;;0.50;100.00
10652;BME280;5374;42.742;23.266;2023-12-20T03:39:02;95650.53;;;0.60;100.00
10652;BME280;5374;42.742;23.266;2023-12-20T03:41:51;95648.91;;;0.59;100.00
10652;BME280;5374;42.742;23.266;2023-12-20T03:44:38;95639.91;;;0.47;100.00
10652;BME280;5374;42.742;23.266;2023-12-20T03:47:27;95646.66;;;0.56;100.00
10652;BME280;5374;42.742;23.266;2023-12-20T03:50:14;95643.25;;;0.56;100.00
10652;BME280;5374;42.742;23.266;2023-12-20T03:53:01;95638.28;;;0.61;100.00
10652;BME280;5374;42.742;23.266;2023-12-20T03:55:49;95613.56;;;0.42;100.00
10652;BME280;5374;42.742;23.266;2023-12-20T03:58:37;95638.91;;;0.63;100.00
10652;BME280;5374;42.742;23.266;2023-12-20T04:01:27;95654.41;;;0.64;100.00
10652;BME280;5374;42.742;23.266;2023-12-20T04:04:16;95620.63;;;0.48;100.00
10652;BME280;5374;42.742;23.266;2023-12-20T04:07:03;95640.81;;;0.54;100.00
10652;BME280;5374;42.742;23.266;2023-12-20T04:09:50;95629.56;;;0.54;100.00
10652;BME280;5374;42.742;23.266;2023-12-20T04:12:37;95630.38;;;0.54;100.00
10652;BME280;5374;42.742;23.266;2023-12-20T04:15:24;95627.13;;;0.52;100.00
10652;BME280;5374;42.742;23.266;2023-12-20T04:18:14;95620.38;;;0.58;100.00
10652;BME280;5374;42.742;23.266;2023-12-20T04:21:04;95583.84;;;0.28;100.00
10652;BME280;5374;42.742;23.266;2023-12-20T04:23:51;95616.41;;;0.47;100.00
10652;BME280;5374;42.742;23.266;2023-12-20T04:26:38;95617.41;;;0.46;100.00
10652;BME280;5374;42.742;23.266;2023-12-20T04:29:25;95614.53;;;0.41;100.00
10652;BME280;5374;42.742;23.266;2023-12-20T04:32:12;95610.13;;;0.27;100.00
10652;BME280;5374;42.742;23.266;2023-12-20T04:34:59;95614.53;;;0.26;100.00
10652;BME280;5374;42.742;23.266;2023-12-20T04:37:48;95614.91;;;0.23;100.00
10652;BME280;5374;42.742;23.266;2023-12-20T04:40:36;95612.28;;;0.23;100.00
10652;BME280;5374;42.742;23.266;2023-12-20T04:43:23;95617.88;;;0.35;100.00
10652;BME280;5374;42.742;23.266;2023-12-20T04:46:10;95605.19;;;0.32;100.00
10652;BME280;5374;42.742;23.266;2023-12-20T04:48:57;95606.34;;;0.29;100.00
10652;BME280;5374;42.742;23.266;2023-12-20T04:51:44;95606.78;;;0.33;100.00
10652;BME280;5374;42.742;23.266;2023-12-20T04:54:33;95609.84;;;0.37;100.00
10652;BME280;5374;42.742;23.266;2023-12-20T04:57:21;95600.22;;;0.37;100.00
10652;BME280;5374;42.742;23.266;2023-12-20T05:00:09;95602.47;;;0.40;100.00
10652;BME280;5374;42.742;23.266;2023-12-20T05:02:56;95597.34;;;0.32;100.00
10652;BME280;5374;42.742;23.266;2023-12-20T05:05:43;95599.56;;;0.50;100.00
10652;BME280;5374;42.742;23.266;2023-12-20T05:08:31;95584.56;;;0.37;100.00
10652;BME280;5374;42.742;23.266;2023-12-20T05:11:19;95590.72;;;0.51;100.00
10652;BME280;5374;42.742;23.266;2023-12-20T05:14:06;95591.84;;;0.42;100.00
10652;BME280;5374;42.742;23.266;2023-12-20T05:16:54;95585.44;;;0.44;100.00
10652;BME280;5374;42.742;23.266;2023-12-20T05:19:42;95589.41;;;0.40;100.00
10652;BME280;5374;42.742;23.266;2023-12-20T05:22:30;95584.00;;;0.42;100.00
10652;BME280;5374;42.742;23.266;2023-12-20T05:25:17;95589.06;;;0.43;100.00
10652;BME280;5374;42.742;23.266;2023-12-20T05:28:06;95581.66;;;0.32;100.00
10652;BME280;5374;42.742;23.266;2023-12-20T05:30:54;95580.94;;;0.23;100.00
10652;BME280;5374;42.742;23.266;2023-12-20T05:33:41;95582.75;;;0.23;100.00
10652;BME280;5374;42.742;23.266;2023-12-20T05:36:28;95565.59;;;0.14;100.00
10652;BME280;5374;42.742;23.266;2023-12-20T05:39:15;95577.00;;;0.27;100.00
10652;BME280;5374;42.742;23.266;2023-12-20T05:42:02;95566.50;;;0.21;100.00
10652;BME280;5374;42.742;23.266;2023-12-20T05:44:51;95565.28;;;0.23;100.00
10652;BME280;5374;42.742;23.266;2023-12-20T05:47:38;95562.88;;;0.22;100.00
10652;BME280;5374;42.742;23.266;2023-12-20T05:50:25;95560.97;;;0.30;100.00
10652;BME280;5374;42.742;23.266;2023-12-20T05:53:12;95562.25;;;0.20;100.00
10652;BME280;5374;42.742;23.266;2023-12-20T05:55:59;95547.94;;;0.16;100.00
10652;BME280;5374;42.742;23.266;2023-12-20T05:58:46;95572.41;;;0.29;100.00
10652;BME280;5374;42.742;23.266;2023-12-20T06:01:35;95543.16;;;0.19;100.00
10652;BME280;5374;42.742;23.266;2023-12-20T06:04:22;95552.13;;;0.31;100.00
10652;BME280;5374;42.742;23.266;2023-12-20T06:07:11;95547.72;;;0.32;100.00
10652;BME280;5374;42.742;23.266;2023-12-20T06:09:58;95558.16;;;0.32;100.00
10652;BME280;5374;42.742;23.266;2023-12-20T06:12:45;95556.09;;;0.27;100.00
10652;BME280;5374;42.742;23.266;2023-12-20T06:15:35;95565.75;;;0.27;100.00
10652;BME280;5374;42.742;23.266;2023-12-20T06:18:24;95566.09;;;0.24;100.00
10652;BME280;5374;42.742;23.266;2023-12-20T06:21:11;95564.56;;;0.29;100.00
10652;BME280;5374;42.742;23.266;2023-12-20T06:23:59;95561.84;;;0.38;100.00
10652;BME280;5374;42.742;23.266;2023-12-20T06:26:46;95556.47;;;0.39;100.00
10652;BME280;5374;42.742;23.266;2023-12-20T06:29:33;95558.72;;;0.42;100.00
10652;BME280;5374;42.742;23.266;2023-12-20T06:32:21;95553.56;;;0.34;100.00
10652;BME280;5374;42.742;23.266;2023-12-20T06:35:10;95553.13;;;0.45;100.00
10652;BME280;5374;42.742;23.266;2023-12-20T06:37:57;95557.13;;;0.48;100.00
10652;BME280;5374;42.742;23.266;2023-12-20T06:40:45;95549.94;;;0.50;100.00
10652;BME280;5374;42.742;23.266;2023-12-20T06:43:32;95553.47;;;0.42;100.00
10652;BME280;5374;42.742;23.266;2023-12-20T06:46:19;95545.03;;;0.40;100.00
10652;BME280;5374;42.742;23.266;2023-12-20T06:49:06;95544.03;;;0.41;100.00
10652;BME280;5374;42.742;23.266;2023-12-20T06:51:55;95538.81;;;0.41;100.00
10652;BME280;5374;42.742;23.266;2023-12-20T06:54:42;95540.25;;;0.44;100.00
10652;BME280;5374;42.742;23.266;2023-12-20T06:57:29;95536.50;;;0.53;100.00
10652;BME280;5374;42.742;23.266;2023-12-20T07:00:17;95519.72;;;0.41;100.00
10652;BME280;5374;42.742;23.266;2023-12-20T07:03:06;95535.19;;;0.42;100.00
10652;BME280;5374;42.742;23.266;2023-12-20T07:05:53;95534.03;;;0.45;100.00
10652;BME280;5374;42.742;23.266;2023-12-20T07:08:42;95534.22;;;0.43;100.00
10652;BME280;5374;42.742;23.266;2023-12-20T07:11:29;95534.22;;;0.43;100.00
10652;BME280;5374;42.742;23.266;2023-12-20T07:14:16;95539.28;;;0.51;100.00
10652;BME280;5374;42.742;23.266;2023-12-20T07:17:04;95520.66;;;0.54;100.00
10652;BME280;5374;42.742;23.266;2023-12-20T07:19:54;95516.16;;;0.48;100.00
10652;BME280;5374;42.742;23.266;2023-12-20T07:22:42;95524.00;;;0.48;100.00
10652;BME280;5374;42.742;23.266;2023-12-20T07:25:31;95519.66;;;0.55;100.00
10652;BME280;5374;42.742;23.266;2023-12-20T07:28:19;95524.78;;;0.63;100.00
10652;BME280;5374;42.742;23.266;2023-12-20T07:31:06;95518.22;;;0.74;100.00
10652;BME280;5374;42.742;23.266;2023-12-20T07:33:53;95508.47;;;0.83;100.00
10652;BME280;5374;42.742;23.266;2023-12-20T07:36:40;95506.84;;;0.82;100.00
10652;BME280;5374;42.742;23.266;2023-12-20T07:39:27;95509.34;;;0.90;100.00
10652;BME280;5374;42.742;23.266;2023-12-20T07:42:16;95516.16;;;0.91;100.00
10652;BME280;5374;42.742;23.266;2023-12-20T07:45:03;95509.06;;;1.06;100.00
10652;BME280;5374;42.742;23.266;2023-12-20T07:47:51;95505.09;;;1.10;100.00
10652;BME280;5374;42.742;23.266;2023-12-20T07:50:38;95504.47;;;1.08;100.00
10652;BME280;5374;42.742;23.266;2023-12-20T07:53:25;95487.03;;;0.94;100.00
10652;BME280;5374;42.742;23.266;2023-12-20T07:56:16;95486.72;;;1.03;100.00
10652;BME280;5374;42.742;23.266;2023-12-20T07:59:05;95488.16;;;1.06;100.00
10652;BME280;5374;42.742;23.266;2023-12-20T08:01:52;95505.94;;;1.17;100.00
10652;BME280;5374;42.742;23.266;2023-12-20T08:04:39;95505.75;;;1.19;100.00
10652;BME280;5374;42.742;23.266;2023-12-20T08:07:26;95511.44;;;1.01;100.00
10652;BME280;5374;42.742;23.266;2023-12-20T08:10:13;95499.72;;;0.97;100.00
10652;BME280;5374;42.742;23.266;2023-12-20T08:13:00;95487.03;;;0.94;100.00
10652;BME280;5374;42.742;23.266;2023-12-20T08:15:49;95467.31;;;0.70;100.00
10652;BME280;5374;42.742;23.266;2023-12-20T08:18:36;95486.41;;;0.92;100.00
10652;BME280;5374;42.742;23.266;2023-12-20T08:21:23;95479.16;;;0.87;100.00
10652;BME280;5374;42.742;23.266;2023-12-20T08:24:10;95476.50;;;1.09;100.00
10652;BME280;5374;42.742;23.266;2023-12-20T08:26:57;95473.31;;;1.13;100.00
10652;BME280;5374;42.742;23.266;2023-12-20T08:29:44;95484.34;;;1.36;100.00
10652;BME280;5374;42.742;23.266;2023-12-20T08:32:33;95424.69;;;1.19;100.00
10652;BME280;5374;42.742;23.266;2023-12-20T08:35:20;95467.38;;;1.60;100.00
10652;BME280;5374;42.742;23.266;2023-12-20T08:38:07;95462.41;;;1.72;100.00
10652;BME280;5374;42.742;23.266;2023-12-20T08:40:55;95449.41;;;1.92;100.00
10652;BME280;5374;42.742;23.266;2023-12-20T08:43:42;95454.69;;;1.98;100.00
10652;BME280;5374;42.742;23.266;2023-12-20T08:46:29;95454.50;;;2.00;100.00
10652;BME280;5374;42.742;23.266;2023-12-20T08:49:17;95445.25;;;2.11;100.00
10652;BME280;5374;42.742;23.266;2023-12-20T08:52:05;95430.75;;;2.15;100.00
10652;BME280;5374;42.742;23.266;2023-12-20T08:54:52;95434.59;;;2.19;100.00
10652;BME280;5374;42.742;23.266;2023-12-20T08:57:39;95439.81;;;2.12;100.00
10652;BME280;5374;42.742;23.266;2023-12-20T09:00:26;95433.38;;;2.15;100.00
10652;BME280;5374;42.742;23.266;2023-12-20T09:03:15;95428.75;;;2.17;100.00
10652;BME280;5374;42.742;23.266;2023-12-20T09:06:04;95412.66;;;2.20;100.00
10652;BME280;5374;42.742;23.266;2023-12-20T09:08:51;95402.34;;;2.12;100.00
10652;BME280;5374;42.742;23.266;2023-12-20T09:11:38;95394.03;;;1.95;100.00
10652;BME280;5374;42.742;23.266;2023-12-20T09:14:25;95386.81;;;1.97;100.00
10652;BME280;5374;42.742;23.266;2023-12-20T09:17:13;95384.81;;;2.12;100.00
10652;BME280;5374;42.742;23.266;2023-12-20T09:20:00;95382.41;;;2.17;100.00
10652;BME280;5374;42.742;23.266;2023-12-20T09:22:49;95376.34;;;2.10;100.00
10652;BME280;5374;42.742;23.266;2023-12-20T09:25:36;95372.34;;;2.21;100.00
10652;BME280;5374;42.742;23.266;2023-12-20T09:28:23;95350.97;;;2.17;100.00
10652;BME280;5374;42.742;23.266;2023-12-20T09:31:10;95350.81;;;2.25;100.00
10652;BME280;5374;42.742;23.266;2023-12-20T09:33:57;95351.78;;;2.31;100.00
10652;BME280;5374;42.742;23.266;2023-12-20T09:36:45;95344.53;;;2.26;100.00
10652;BME280;5374;42.742;23.266;2023-12-20T09:39:34;95335.06;;;2.38;100.00
10652;BME280;5374;42.742;23.266;2023-12-20T09:42:24;95327.59;;;2.49;100.00
10652;BME280;5374;42.742;23.266;2023-12-20T09:45:15;95312.28;;;2.52;100.00
10652;BME280;5374;42.742;23.266;2023-12-20T09:48:03;95309.06;;;2.57;100.00
10652;BME280;5374;42.742;23.266;2023-12-20T09:50:51;95320.34;;;2.64;100.00
10652;BME280;5374;42.742;23.266;2023-12-20T09:53:40;95318.34;;;2.59;100.00
10652;BME280;5374;42.742;23.266;2023-12-20T09:56:29;95313.91;;;2.66;100.00
10652;BME280;5374;42.742;23.266;2023-12-20T09:59:16;95307.81;;;2.79;100.00
10652;BME280;5374;42.742;23.266;2023-12-20T10:02:05;95301.16;;;2.83;100.00
10652;BME280;5374;42.742;23.266;2023-12-20T10:04:56;95295.72;;;2.85;100.00
10652;BME280;5374;42.742;23.266;2023-12-20T10:07:43;95279.34;;;2.96;100.00
10652;BME280;5374;42.742;23.266;2023-12-20T10:10:30;95280.59;;;2.93;100.00
10652;BME280;5374;42.742;23.266;2023-12-20T10:13:19;95280.75;;;3.05;100.00
10652;BME280;5374;42.742;23.266;2023-12-20T10:16:06;95272.81;;;3.18;100.00
10652;BME280;5374;42.742;23.266;2023-12-20T10:18:54;95257.69;;;3.20;100.00
10652;BME280;5374;42.742;23.266;2023-12-20T10:21:41;95258.75;;;3.51;100.00
10652;BME280;5374;42.742;23.266;2023-12-20T10:24:29;95253.53;;;3.82;100.00
10652;BME280;5374;42.742;23.266;2023-12-20T10:27:18;95250.81;;;3.95;100.00
10652;BME280;5374;42.742;23.266;2023-12-20T10:30:08;95250.63;;;4.22;100.00
10652;BME280;5374;42.742;23.266;2023-12-20T10:32:55;95243.09;;;4.50;100.00
10652;BME280;5374;42.742;23.266;2023-12-20T10:35:43;95238.28;;;4.65;100.00
10652;BME280;5374;42.742;23.266;2023-12-20T10:38:30;95229.97;;;4.68;100.00
10652;BME280;5374;42.742;23.266;2023-12-20T10:41:20;95226.16;;;4.82;100.00
10652;BME280;5374;42.742;23.266;2023-12-20T10:44:10;95210.81;;;4.79;100.00
10652;BME280;5374;42.742;23.266;2023-12-20T10:46:59;95198.78;;;4.72;100.00
10652;BME280;5374;42.742;23.266;2023-12-20T10:49:46;95199.72;;;4.77;100.00
10652;BME280;5374;42.742;23.266;2023-12-20T10:52:34;95197.31;;;4.76;100.00
10652;BME280;5374;42.742;23.266;2023-12-20T10:55:23;95206.53;;;4.85;100.00
10652;BME280;5374;42.742;23.266;2023-12-20T10:58:10;95206.47;;;4.92;100.00
10652;BME280;5374;42.742;23.266;2023-12-20T11:01:00;95176.97;;;5.01;100.00
10652;BME280;5374;42.742;23.266;2023-12-20T11:03:51;95189.03;;;5.09;100.00
10652;BME280;5374;42.742;23.266;2023-12-20T11:06:45;95185.81;;;5.07;100.00
10652;BME280;5374;42.742;23.266;2023-12-20T11:09:38;95169.81;;;5.08;100.00
10652;BME280;5374;42.742;23.266;2023-12-20T11:12:34;95170.88;;;5.37;100.00
10652;BME280;5374;42.742;23.266;2023-12-20T11:15:24;95166.28;;;5.44;100.00
10652;BME280;5374;42.742;23.266;2023-12-20T11:18:13;95153.50;;;5.18;100.00
10652;BME280;5374;42.742;23.266;2023-12-20T11:21:02;95155.13;;;5.01;100.00
10652;BME280;5374;42.742;23.266;2023-12-20T11:23:51;95139.16;;;4.84;100.00
10652;BME280;5374;42.742;23.266;2023-12-20T11:26:46;95152.38;;;4.59;100.00
10652;BME280;5374;42.742;23.266;2023-12-20T11:29:34;95109.31;;;4.42;100.00
10652;BME280;5374;42.742;23.266;2023-12-20T11:32:28;95133.34;;;4.45;100.00
10652;BME280;5374;42.742;23.266;2023-12-20T11:35:19;95117.03;;;4.37;100.00
10652;BME280;5374;42.742;23.266;2023-12-20T11:38:13;95113.09;;;4.46;100.00
10652;BME280;5374;42.742;23.266;2023-12-20T11:41:00;95115.94;;;4.63;100.00
10652;BME280;5374;42.742;23.266;2023-12-20T11:43:52;95102.84;;;4.74;100.00
10652;BME280;5374;42.742;23.266;2023-12-20T11:46:40;95105.31;;;4.88;100.00
10652;BME280;5374;42.742;23.266;2023-12-20T11:49:27;95092.75;;;4.90;100.00
10652;BME280;5374;42.742;23.266;2023-12-20T11:52:15;95083.91;;;4.84;100.00
10652;BME280;5374;42.742;23.266;2023-12-20T11:55:04;95086.91;;;4.88;100.00
10652;BME280;5374;42.742;23.266;2023-12-20T11:57:51;95073.41;;;4.84;100.00
10652;BME280;5374;42.742;23.266;2023-12-20T12:00:39;95071.00;;;4.82;100.00
10652;BME280;5374;42.742;23.266;2023-12-20T12:03:26;95069.53;;;4.87;100.00
10652;BME280;5374;42.742;23.266;2023-12-20T12:06:13;95050.53;;;4.85;100.00
10652;BME280;5374;42.742;23.266;2023-12-20T12:09:01;95045.41;;;4.90;100.00
10652;BME280;5374;42.742;23.266;2023-12-20T12:11:51;95035.19;;;4.81;100.00
10652;BME280;5374;42.742;23.266;2023-12-20T12:14:38;95040.31;;;4.76;100.00
10652;BME280;5374;42.742;23.266;2023-12-20T12:17:26;95048.34;;;4.52;100.00
10652;BME280;5374;42.742;23.266;2023-12-20T12:20:13;95034.28;;;4.58;100.00
10652;BME280;5374;42.742;23.266;2023-12-20T12:23:01;95013.81;;;4.48;100.00
10652;BME280;5374;42.742;23.266;2023-12-20T12:25:48;95020.66;;;4.49;100.00
10652;BME280;5374;42.742;23.266;2023-12-20T12:28:39;95027.19;;;4.58;100.00
10652;BME280;5374;42.742;23.266;2023-12-20T12:31:27;95031.44;;;4.59;100.00
10652;BME280;5374;42.742;23.266;2023-12-20T12:34:14;95024.94;;;4.62;100.00
10652;BME280;5374;42.742;23.266;2023-12-20T12:37:03;95030.38;;;4.49;100.00
10652;BME280;5374;42.742;23.266;2023-12-20T12:39:53;95024.09;;;4.31;100.00
10652;BME280;5374;42.742;23.266;2023-12-20T12:42:41;95023.44;;;4.36;100.00
10652;BME280;5374;42.742;23.266;2023-12-20T12:45:30;95029.66;;;4.23;100.00
10652;BME280;5374;42.742;23.266;2023-12-20T12:48:18;95032.97;;;4.00;100.00
10652;BME280;5374;42.742;23.266;2023-12-20T12:51:05;95018.66;;;3.96;100.00
10652;BME280;5374;42.742;23.266;2023-12-20T12:53:58;94985.22;;;3.85;100.00
10652;BME280;5374;42.742;23.266;2023-12-20T12:56:45;94980.28;;;3.77;100.00
10652;BME280;5374;42.742;23.266;2023-12-20T12:59:33;95004.72;;;3.96;100.00
10652;BME280;5374;42.742;23.266;2023-12-20T13:02:22;95018.94;;;3.88;100.00
10652;BME280;5374;42.742;23.266;2023-12-20T13:05:09;94998.81;;;3.82;100.00
10652;BME280;5374;42.742;23.266;2023-12-20T13:07:56;94976.75;;;3.47;100.00
10652;BME280;5374;42.742;23.266;2023-12-20T13:10:44;95010.47;;;3.68;100.00
10652;BME280;5374;42.742;23.266;2023-12-20T13:13:31;94964.84;;;3.44;100.00
10652;BME280;5374;42.742;23.266;2023-12-20T13:16:18;95009.28;;;3.64;100.00
10652;BME280;5374;42.742;23.266;2023-12-20T13:19:07;95007.31;;;3.59;100.00
10652;BME280;5374;42.742;23.266;2023-12-20T13:21:55;94980.16;;;3.47;100.00
10652;BME280;5374;42.742;23.266;2023-12-20T13:24:43;94993.25;;;3.54;100.00
10652;BME280;5374;42.742;23.266;2023-12-20T13:27:30;94988.25;;;3.46;100.00
10652;BME280;5374;42.742;23.266;2023-12-20T13:30:18;94999.19;;;3.42;100.00
10652;BME280;5374;42.742;23.266;2023-12-20T13:33:06;94992.91;;;3.43;100.00
10652;BME280;5374;42.742;23.266;2023-12-20T13:35:54;94992.31;;;3.41;100.00
10652;BME280;5374;42.742;23.266;2023-12-20T13:38:43;94976.72;;;3.28;100.00
10652;BME280;5374;42.742;23.266;2023-12-20T13:41:31;94976.88;;;3.33;100.00
10652;BME280;5374;42.742;23.266;2023-12-20T13:44:18;94971.47;;;3.28;100.00
10652;BME280;5374;42.742;23.266;2023-12-20T13:47:05;94981.47;;;3.38;100.00
10652;BME280;5374;42.742;23.266;2023-12-20T13:49:52;94976.28;;;3.31;100.00
10652;BME280;5374;42.742;23.266;2023-12-20T13:52:41;94979.06;;;3.36;100.00
10652;BME280;5374;42.742;23.266;2023-12-20T13:55:28;94984.75;;;3.33;100.00
10652;BME280;5374;42.742;23.266;2023-12-20T13:58:16;94982.97;;;3.27;100.00
10652;BME280;5374;42.742;23.266;2023-12-20T14:01:03;94977.41;;;3.17;100.00
10652;BME280;5374;42.742;23.266;2023-12-20T14:03:50;94939.75;;;2.87;100.00
10652;BME280;5374;42.742;23.266;2023-12-20T14:06:37;94980.16;;;3.04;100.00
10652;BME280;5374;42.742;23.266;2023-12-20T14:09:26;94981.75;;;3.05;100.00
10652;BME280;5374;42.742;23.266;2023-12-20T14:12:13;94974.53;;;3.00;100.00
10652;BME280;5374;42.742;23.266;2023-12-20T14:15:00;94981.16;;;3.03;100.00
10652;BME280;5374;42.742;23.266;2023-12-20T14:17:47;94978.00;;;2.94;100.00
10652;BME280;5374;42.742;23.266;2023-12-20T14:20:34;94966.56;;;2.89;100.00
10652;BME280;5374;42.742;23.266;2023-12-20T14:23:22;94969.81;;;2.84;100.00
10652;BME280;5374;42.742;23.266;2023-12-20T14:26:10;94969.59;;;2.86;100.00
10652;BME280;5374;42.742;23.266;2023-12-20T14:29:00;94942.53;;;2.67;100.00
10652;BME280;5374;42.742;23.266;2023-12-20T14:31:47;94964.59;;;2.78;100.00
10652;BME280;5374;42.742;23.266;2023-12-20T14:34:35;94970.88;;;2.77;100.00
10652;BME280;5374;42.742;23.266;2023-12-20T14:37:23;94972.16;;;2.67;100.00
10652;BME280;5374;42.742;23.266;2023-12-20T14:40:11;94961.09;;;2.65;100.00
10652;BME280;5374;42.742;23.266;2023-12-20T14:43:03;94957.47;;;2.60;100.00
10652;BME280;5374;42.742;23.266;2023-12-20T14:45:50;94921.44;;;2.24;100.00
10652;BME280;5374;42.742;23.266;2023-12-20T14:48:37;94966.97;;;2.54;100.00